createdAt,value
2022-08-16T00:01:26.484Z,17.70
2022-08-16T00:03:56.983Z,17.70
2022-08-16T00:06:26.982Z,17.70
2022-08-16T00:08:54.874Z,17.70
2022-08-16T00:11:22.986Z,17.70
2022-08-16T00:13:53.078Z,17.70
2022-08-16T00:17:01.025Z,17.70
2022-08-16T00:19:13.609Z,17.70
2022-08-16T00:21:44.169Z,17.70
2022-08-16T00:24:14.067Z,17.70
2022-08-16T00:27:00.391Z,17.60
2022-08-16T00:29:29.622Z,17.60
2022-08-16T00:32:05.377Z,17.60
2022-08-16T00:34:52.524Z,17.60
2022-08-16T00:37:24.516Z,17.60
2022-08-16T00:39:58.387Z,17.50
2022-08-16T00:42:31.781Z,17.40
2022-08-16T00:45:09.965Z,17.40
2022-08-16T00:47:49.048Z,17.40
2022-08-16T00:50:20.239Z,17.50
2022-08-16T00:52:50.838Z,17.50
2022-08-16T00:55:22.027Z,17.50
2022-08-16T00:57:59.889Z,17.50
2022-08-16T01:00:29.907Z,17.60
2022-08-16T01:02:59.986Z,17.60
2022-08-16T01:05:29.054Z,17.60
2022-08-16T01:07:58.759Z,17.50
2022-08-16T01:10:32.111Z,17.50
2022-08-16T01:13:05.633Z,17.50
2022-08-16T01:15:34.752Z,17.50
2022-08-16T01:18:05.753Z,17.40
2022-08-16T01:20:39.003Z,17.40
2022-08-16T01:23:17.590Z,17.30
2022-08-16T01:25:59.778Z,17.30
2022-08-16T01:28:45.392Z,17.20
2022-08-16T01:31:15.652Z,17.20
2022-08-16T01:33:44.591Z,17.20
2022-08-16T01:36:13.168Z,17.10
2022-08-16T01:38:47.141Z,17.10
2022-08-16T01:41:23.824Z,17.00
2022-08-16T01:43:53.762Z,17.00
2022-08-16T01:46:38.405Z,17.00
2022-08-16T01:49:11.836Z,17.00
2022-08-16T01:51:41.999Z,17.00
2022-08-16T01:54:13.407Z,17.00
2022-08-16T01:56:44.813Z,17.10
2022-08-16T01:59:16.058Z,17.10
2022-08-16T02:01:52.590Z,17.10
2022-08-16T02:04:44.557Z,17.10
2022-08-16T02:07:18.602Z,17.10
2022-08-16T02:09:58.701Z,17.00
2022-08-16T02:12:50.735Z,17.00
2022-08-16T02:15:25.563Z,17.00
2022-08-16T02:17:53.875Z,17.00
2022-08-16T02:20:26.166Z,17.00
2022-08-16T02:22:55.845Z,17.00
2022-08-16T02:25:23.878Z,17.00
2022-08-16T02:27:54.111Z,17.00
2022-08-16T02:30:36.014Z,16.90
2022-08-16T02:33:11.789Z,16.90
2022-08-16T02:35:54.029Z,16.80
2022-08-16T02:38:26.921Z,16.80
2022-08-16T02:40:55.263Z,16.80
2022-08-16T02:43:26.914Z,16.80
2022-08-16T02:45:55.498Z,16.80
2022-08-16T02:48:29.190Z,16.80
2022-08-16T02:51:06.625Z,16.70
2022-08-16T02:53:43.181Z,16.70
2022-08-16T02:56:14.943Z,16.80
2022-08-16T02:58:45.210Z,16.70
2022-08-16T03:01:25.389Z,16.80
2022-08-16T03:04:40.686Z,16.80
2022-08-16T03:06:56.622Z,16.70
2022-08-16T03:09:25.385Z,16.80
2022-08-16T03:11:57.058Z,16.80
2022-08-16T03:14:27.763Z,16.70
2022-08-16T03:16:59.093Z,16.70
2022-08-16T03:19:47.395Z,16.70
2022-08-16T03:22:19.121Z,16.70
2022-08-16T03:24:57.503Z,16.60
2022-08-16T03:27:31.296Z,16.60
2022-08-16T03:30:16.591Z,16.50
2022-08-16T03:32:47.465Z,16.40
2022-08-16T03:35:17.758Z,16.30
2022-08-16T03:38:01.645Z,16.40
2022-08-16T03:40:33.325Z,16.30
2022-08-16T03:43:20.065Z,16.20
2022-08-16T03:45:52.333Z,16.10
2022-08-16T03:48:36.193Z,16.00
2022-08-16T03:51:09.457Z,16.00
2022-08-16T03:53:38.401Z,16.00
2022-08-16T03:56:18.663Z,16.00
2022-08-16T03:58:50.645Z,16.10
2022-08-16T04:01:20.883Z,16.10
2022-08-16T04:03:50.063Z,16.10
2022-08-16T04:06:18.178Z,16.10
2022-08-16T04:08:46.058Z,16.10
2022-08-16T04:11:17.071Z,16.20
2022-08-16T04:14:00.625Z,16.20
2022-08-16T04:16:34.550Z,16.10
2022-08-16T04:19:04.175Z,16.20
2022-08-16T04:21:33.060Z,16.20
2022-08-16T04:24:01.609Z,16.20
2022-08-16T04:26:32.230Z,16.20
2022-08-16T04:29:17.034Z,16.30
2022-08-16T04:31:56.615Z,16.30
2022-08-16T04:34:28.709Z,16.30
2022-08-16T04:36:57.928Z,16.30
2022-08-16T04:39:47.471Z,16.30
2022-08-16T04:42:14.289Z,16.30
2022-08-16T04:44:53.613Z,16.10
2022-08-16T04:47:31.201Z,16.10
2022-08-16T04:50:00.064Z,16.00
2022-08-16T04:52:33.549Z,16.00
2022-08-16T04:55:07.485Z,16.00
2022-08-16T04:57:36.067Z,16.10
2022-08-16T05:00:32.867Z,16.10
2022-08-16T05:03:01.428Z,16.00
2022-08-16T05:05:55.436Z,16.00
2022-08-16T05:08:29.096Z,16.10
2022-08-16T05:11:00.606Z,16.20
2022-08-16T05:13:39.811Z,16.10
2022-08-16T05:16:11.894Z,16.10
2022-08-16T05:18:46.081Z,16.10
2022-08-16T05:21:15.167Z,16.30
2022-08-16T05:23:49.177Z,16.40
2022-08-16T05:26:24.348Z,16.40
2022-08-16T05:28:56.263Z,16.50
2022-08-16T05:31:29.509Z,16.50
2022-08-16T05:34:00.651Z,16.60
2022-08-16T05:36:34.039Z,16.60
2022-08-16T05:39:04.469Z,16.70
2022-08-16T05:41:32.395Z,16.80
2022-08-16T05:44:05.233Z,16.90
2022-08-16T05:46:33.538Z,17.10
2022-08-16T05:49:08.569Z,17.20
2022-08-16T05:51:39.821Z,17.40
2022-08-16T05:54:11.170Z,17.50
2022-08-16T05:56:39.896Z,17.60
2022-08-16T05:59:08.222Z,17.80
2022-08-16T06:01:38.737Z,17.90
2022-08-16T06:04:12.900Z,18.00
2022-08-16T06:06:55.703Z,18.00
2022-08-16T06:09:25.841Z,18.00
2022-08-16T06:12:11.809Z,18.00
2022-08-16T06:14:40.262Z,18.10
2022-08-16T06:17:08.857Z,18.30
2022-08-16T06:19:44.895Z,18.40
2022-08-16T06:22:19.466Z,18.50
2022-08-16T06:25:00.777Z,18.50
2022-08-16T06:27:28.691Z,18.50
2022-08-16T06:30:09.276Z,18.50
2022-08-16T06:32:43.201Z,18.50
2022-08-16T06:35:18.736Z,18.60
2022-08-16T06:37:51.397Z,18.60
2022-08-16T06:40:20.517Z,18.60
2022-08-16T06:42:51.840Z,18.70
2022-08-16T06:45:24.363Z,18.70
2022-08-16T06:47:57.193Z,18.80
2022-08-16T06:50:35.935Z,18.90
2022-08-16T06:53:07.333Z,18.90
2022-08-16T06:55:38.280Z,19.00
2022-08-16T06:58:08.392Z,19.10
2022-08-16T07:00:37.971Z,19.30
2022-08-16T07:03:28.292Z,19.40
2022-08-16T07:06:00.711Z,19.50
2022-08-16T07:08:29.263Z,19.70
2022-08-16T07:10:58.658Z,19.90
2022-08-16T07:14:00.121Z,19.90
2022-08-16T07:16:16.651Z,20.10
2022-08-16T07:18:58.628Z,20.20
2022-08-16T07:21:42.243Z,20.30
2022-08-16T07:24:30.468Z,20.40
2022-08-16T07:27:00.635Z,20.50
2022-08-16T07:29:31.604Z,20.60
2022-08-16T07:32:00.965Z,20.70
2022-08-16T07:34:35.837Z,20.80
2022-08-16T07:37:09.531Z,21.00
2022-08-16T07:39:43.159Z,21.20
2022-08-16T07:42:20.198Z,21.40
2022-08-16T07:44:57.143Z,21.50
2022-08-16T07:47:31.636Z,21.70
2022-08-16T07:50:00.318Z,21.70
2022-08-16T07:52:38.666Z,21.80
2022-08-16T07:55:08.299Z,21.90
2022-08-16T07:57:44.416Z,21.90
2022-08-16T08:00:26.439Z,22.00
2022-08-16T08:02:55.581Z,22.00
2022-08-16T08:05:35.652Z,22.10
2022-08-16T08:08:11.880Z,22.30
2022-08-16T08:10:54.095Z,22.60
2022-08-16T08:13:28.927Z,22.80
2022-08-16T08:16:19.129Z,23.00
2022-08-16T08:18:50.296Z,23.30
2022-08-16T08:21:27.255Z,23.50
2022-08-16T08:23:58.073Z,23.60
2022-08-16T08:26:26.287Z,23.80
2022-08-16T08:29:01.015Z,24.20
2022-08-16T08:31:29.909Z,24.50
2022-08-16T08:33:59.892Z,24.60
2022-08-16T08:36:33.134Z,24.70
2022-08-16T08:39:03.016Z,24.80
2022-08-16T08:41:41.617Z,24.90
2022-08-16T08:44:28.595Z,25.20
2022-08-16T08:47:00.753Z,25.40
2022-08-16T08:49:50.303Z,25.50
2022-08-16T08:52:34.440Z,25.60
2022-08-16T08:55:10.559Z,25.80
2022-08-16T08:57:40.934Z,26.00
2022-08-16T09:00:13.624Z,26.00
2022-08-16T09:02:44.421Z,26.40
2022-08-16T09:05:15.241Z,26.60
2022-08-16T09:07:54.622Z,27.20
2022-08-16T09:10:32.432Z,27.20
2022-08-16T09:13:01.967Z,27.20
2022-08-16T09:15:32.884Z,27.30
2022-08-16T09:18:24.560Z,27.30
2022-08-16T09:20:58.934Z,27.20
2022-08-16T09:23:29.294Z,27.40
2022-08-16T09:25:58.793Z,27.50
2022-08-16T09:28:38.058Z,27.40
2022-08-16T09:31:17.242Z,27.40
2022-08-16T09:33:45.940Z,27.90
2022-08-16T09:36:31.807Z,28.40
2022-08-16T09:39:02.109Z,28.70
2022-08-16T09:41:32.770Z,28.90
2022-08-16T09:44:20.733Z,28.80
2022-08-16T09:46:52.870Z,29.00
2022-08-16T09:49:23.747Z,29.30
2022-08-16T09:51:53.352Z,29.10
2022-08-16T09:54:22.074Z,29.00
2022-08-16T09:56:53.589Z,29.20
2022-08-16T09:59:23.185Z,29.30
2022-08-16T10:01:52.522Z,29.40
2022-08-16T10:04:31.144Z,29.80
2022-08-16T10:07:15.511Z,30.20
2022-08-16T10:09:53.459Z,31.00
2022-08-16T10:12:43.391Z,31.60
2022-08-16T10:15:15.534Z,31.80
2022-08-16T10:17:45.450Z,31.80
2022-08-16T10:20:29.143Z,31.70
2022-08-16T10:23:03.606Z,31.20
2022-08-16T10:27:18.204Z,31.40
2022-08-16T10:28:29.151Z,31.50
2022-08-16T10:30:58.957Z,31.20
2022-08-16T10:33:29.491Z,30.80
2022-08-16T10:36:03.893Z,30.70
2022-08-16T10:38:36.834Z,30.80
2022-08-16T10:41:06.929Z,30.60
2022-08-16T10:43:37.591Z,30.50
2022-08-16T10:46:33.928Z,30.40
2022-08-16T10:48:56.070Z,30.00
2022-08-16T10:51:33.694Z,29.50
2022-08-16T10:54:02.834Z,29.00
2022-08-16T10:56:56.061Z,28.70
2022-08-16T10:59:38.157Z,28.50
2022-08-16T11:02:58.460Z,28.40
2022-08-16T11:05:08.657Z,28.30
2022-08-16T11:07:51.687Z,28.20
2022-08-16T11:19:05.853Z,29.30
2022-08-16T11:22:23.336Z,29.60
2022-08-16T11:24:42.903Z,29.80
2022-08-16T11:27:19.439Z,30.20
2022-08-16T11:29:49.448Z,30.70
2022-08-16T11:32:20.234Z,31.10
2022-08-16T11:35:13.395Z,31.00
2022-08-16T11:40:32.379Z,30.20
2022-08-16T11:43:01.223Z,30.00
2022-08-16T11:45:33.480Z,29.90
2022-08-16T11:48:04.913Z,29.80
2022-08-16T11:50:33.739Z,29.80
2022-08-16T11:53:03.779Z,29.80
2022-08-16T11:55:32.834Z,29.50
2022-08-16T11:58:01.193Z,29.70
2022-08-16T12:00:42.700Z,29.70
2022-08-16T12:03:23.865Z,29.70
2022-08-16T12:06:02.208Z,29.80
2022-08-16T12:08:31.288Z,29.70
2022-08-16T12:11:02.456Z,29.50
2022-08-16T12:13:30.718Z,29.10
2022-08-16T12:16:00.324Z,29.10
2022-08-16T12:18:31.445Z,29.20
2022-08-16T12:20:59.999Z,29.10
2022-08-16T12:23:27.973Z,29.10
2022-08-16T12:25:59.483Z,29.00
2022-08-16T12:28:52.099Z,29.00
2022-08-16T12:31:15.587Z,29.00
2022-08-16T12:33:46.063Z,28.60
2022-08-16T12:36:16.916Z,28.60
2022-08-16T12:38:48.669Z,28.50
2022-08-16T12:41:25.180Z,28.80
2022-08-16T12:43:57.016Z,29.30
2022-08-16T12:46:30.998Z,29.70
2022-08-16T12:49:00.367Z,29.80
2022-08-16T12:51:58.634Z,29.80
2022-08-16T12:54:21.235Z,29.70
2022-08-16T12:56:50.306Z,29.60
2022-08-16T12:59:20.540Z,29.70
2022-08-16T13:01:50.607Z,29.70
2022-08-16T13:04:25.012Z,29.80
2022-08-16T13:06:53.468Z,29.90
2022-08-16T13:09:26.375Z,30.00
2022-08-16T13:12:04.442Z,30.40
2022-08-16T13:14:37.783Z,30.90
2022-08-16T13:17:08.021Z,31.00
2022-08-16T13:20:06.016Z,31.00
2022-08-16T13:22:27.461Z,30.90
2022-08-16T13:24:55.808Z,31.00
2022-08-16T13:27:34.965Z,31.20
2022-08-16T13:30:35.787Z,31.00
2022-08-16T13:33:01.819Z,30.80
2022-08-16T13:35:43.156Z,30.70
2022-08-16T13:38:25.015Z,30.70
2022-08-16T13:40:56.074Z,30.60
2022-08-16T13:43:26.469Z,30.40
2022-08-16T13:45:55.391Z,30.40
2022-08-16T13:48:25.243Z,30.30
2022-08-16T13:50:56.357Z,30.40
2022-08-16T13:53:25.339Z,30.40
2022-08-16T13:55:58.524Z,30.30
2022-08-16T13:58:37.047Z,30.30
2022-08-16T14:01:16.185Z,30.50
2022-08-16T14:03:46.767Z,30.50
2022-08-16T14:06:18.649Z,30.50
2022-08-16T14:08:50.312Z,30.40
2022-08-16T14:11:29.090Z,30.30
2022-08-16T14:13:57.400Z,30.30
2022-08-16T14:16:33.589Z,30.50
2022-08-16T14:19:02.546Z,30.40
2022-08-16T14:21:34.776Z,30.60
2022-08-16T14:24:07.971Z,30.80
2022-08-16T14:26:50.483Z,30.80
2022-08-16T14:31:53.909Z,30.80
2022-08-16T14:34:23.906Z,30.90
2022-08-16T14:36:55.148Z,30.80
2022-08-16T14:39:23.286Z,30.30
2022-08-16T14:41:53.480Z,30.00
2022-08-16T14:44:24.136Z,29.70
2022-08-16T14:46:54.281Z,29.70
2022-08-16T14:49:23.876Z,29.60
2022-08-16T14:51:52.097Z,29.50
2022-08-16T14:54:22.065Z,29.40
2022-08-16T14:56:56.604Z,29.20
2022-08-16T14:59:24.931Z,29.10
2022-08-16T15:01:59.857Z,29.10
2022-08-16T15:04:39.832Z,29.10
2022-08-16T15:07:11.167Z,29.00
2022-08-16T15:10:01.586Z,28.90
2022-08-16T15:12:34.234Z,29.00
2022-08-16T15:15:13.086Z,29.00
2022-08-16T15:17:56.723Z,29.00
2022-08-16T15:20:29.150Z,29.00
2022-08-16T15:22:59.241Z,28.90
2022-08-16T15:25:30.883Z,28.80
2022-08-16T15:28:02.279Z,28.70
2022-08-16T15:30:57.609Z,28.70
2022-08-16T15:33:21.642Z,28.70
2022-08-16T15:35:52.509Z,28.80
2022-08-16T15:38:55.240Z,28.90
2022-08-16T15:41:13.607Z,28.90
2022-08-16T15:43:41.631Z,28.90
2022-08-16T15:46:35.749Z,29.00
2022-08-16T15:49:13.317Z,29.00
2022-08-16T15:51:43.585Z,29.00
2022-08-16T15:54:21.191Z,29.00
2022-08-16T15:57:09.693Z,29.10
2022-08-16T15:59:48.703Z,29.20
2022-08-16T16:02:21.685Z,29.20
2022-08-16T16:05:00.679Z,29.20
2022-08-16T16:07:56.757Z,29.30
2022-08-16T16:10:28.332Z,29.20
2022-08-16T16:13:00.760Z,29.30
2022-08-16T16:15:31.335Z,29.30
2022-08-16T16:17:59.532Z,29.30
2022-08-16T16:20:42.282Z,29.20
2022-08-16T16:23:11.743Z,29.20
2022-08-16T16:25:44.700Z,29.20
2022-08-16T16:28:45.936Z,29.20
2022-08-16T16:31:12.665Z,29.20
2022-08-16T16:33:44.370Z,29.20
2022-08-16T16:36:19.264Z,29.10
2022-08-16T16:38:50.119Z,29.10
2022-08-16T16:41:22.409Z,29.00
2022-08-16T16:43:53.784Z,29.00
2022-08-16T16:46:32.673Z,28.90
2022-08-16T16:49:10.513Z,28.90
2022-08-16T16:51:41.304Z,28.80
2022-08-16T16:54:13.395Z,28.80
2022-08-16T16:56:56.456Z,28.90
2022-08-16T16:59:33.628Z,28.90
2022-08-16T17:02:38.324Z,28.90
2022-08-16T17:04:51.848Z,28.90
2022-08-16T17:07:24.378Z,28.80
2022-08-16T17:09:52.451Z,28.80
2022-08-16T17:12:24.522Z,28.80
2022-08-16T17:14:55.174Z,28.70
2022-08-16T17:17:23.982Z,28.60
2022-08-16T17:19:52.048Z,28.70
2022-08-16T17:22:24.014Z,28.60
2022-08-16T17:25:01.388Z,28.60
2022-08-16T17:27:33.628Z,28.60
2022-08-16T17:30:14.826Z,28.50
2022-08-16T17:32:48.793Z,28.50
2022-08-16T17:35:23.090Z,28.40
2022-08-16T17:37:52.507Z,28.30
2022-08-16T17:40:54.979Z,28.20
2022-08-16T17:43:28.450Z,28.10
2022-08-16T17:45:58.677Z,28.00
2022-08-16T17:48:41.933Z,28.00
2022-08-16T17:51:09.881Z,28.00
2022-08-16T17:53:38.439Z,27.90
2022-08-16T17:56:06.672Z,27.90
2022-08-16T17:58:34.588Z,27.80
2022-08-16T18:01:04.259Z,27.70
2022-08-16T18:04:07.035Z,27.60
2022-08-16T18:06:24.436Z,27.40
2022-08-16T18:09:00.311Z,27.30
2022-08-16T18:11:32.961Z,27.20
2022-08-16T18:14:01.413Z,27.00
2022-08-16T18:16:30.788Z,26.80
2022-08-16T18:18:59.062Z,26.70
2022-08-16T18:21:45.520Z,26.60
2022-08-16T18:24:14.853Z,26.40
2022-08-16T18:26:43.832Z,26.30
2022-08-16T18:29:12.153Z,26.20
2022-08-16T18:31:41.561Z,26.10
2022-08-16T18:34:09.549Z,25.90
2022-08-16T18:36:38.089Z,25.80
2022-08-16T18:39:06.758Z,25.70
2022-08-16T18:41:36.977Z,25.60
2022-08-16T18:44:25.686Z,25.40
2022-08-16T18:46:57.574Z,25.30
2022-08-16T18:49:25.541Z,25.10
2022-08-16T18:51:58.185Z,25.00
2022-08-16T18:54:28.084Z,24.90
2022-08-16T18:56:57.902Z,24.80
2022-08-16T18:59:28.762Z,24.70
2022-08-16T19:02:00.200Z,24.50
2022-08-16T19:04:56.382Z,24.50
2022-08-16T19:07:21.689Z,24.40
2022-08-16T19:09:49.601Z,24.30
2022-08-16T19:12:17.516Z,24.30
2022-08-16T19:15:07.967Z,24.20
2022-08-16T19:17:41.450Z,24.10
2022-08-16T19:20:11.414Z,23.90
2022-08-16T19:23:05.432Z,23.80
2022-08-16T19:25:46.103Z,23.80
2022-08-16T19:28:49.257Z,23.70
2022-08-16T19:31:05.529Z,23.60
2022-08-16T19:33:34.799Z,23.60
2022-08-16T19:36:05.486Z,23.40
2022-08-16T19:38:34.113Z,23.20
2022-08-16T19:41:02.236Z,23.20
2022-08-16T19:43:30.176Z,23.10
2022-08-16T19:45:58.153Z,23.00
2022-08-16T19:48:26.136Z,23.00
2022-08-16T19:50:55.403Z,22.90
2022-08-16T19:53:23.325Z,22.90
2022-08-16T19:55:51.252Z,22.90
2022-08-16T19:58:20.172Z,22.90
2022-08-16T20:00:52.402Z,23.00
2022-08-16T20:03:25.310Z,23.00
2022-08-16T20:05:55.126Z,23.10
2022-08-16T20:08:23.255Z,23.10
2022-08-16T20:10:51.473Z,23.10
2022-08-16T20:13:21.183Z,23.00
2022-08-16T20:15:50.413Z,23.00
2022-08-16T20:18:24.633Z,23.00
2022-08-16T20:20:55.703Z,23.00
2022-08-16T20:23:25.446Z,23.00
2022-08-16T20:25:55.437Z,23.00
2022-08-16T20:28:45.049Z,23.00
2022-08-16T20:31:12.232Z,22.90
2022-08-16T20:33:40.365Z,22.80
2022-08-16T20:36:16.000Z,22.60
2022-08-16T20:38:46.751Z,22.50
2022-08-16T20:41:15.016Z,22.40
2022-08-16T20:43:43.028Z,22.30
2022-08-16T20:46:11.320Z,22.20
2022-08-16T20:48:39.390Z,22.10
2022-08-16T20:51:10.584Z,22.00
2022-08-16T20:53:38.791Z,21.90
2022-08-16T20:56:07.472Z,21.80
2022-08-16T20:58:35.527Z,21.70
2022-08-16T21:01:04.124Z,21.70
2022-08-16T21:03:32.504Z,21.70
2022-08-16T21:06:02.510Z,21.70
2022-08-16T21:08:53.433Z,21.80
2022-08-16T21:11:21.563Z,21.50
2022-08-16T21:13:49.560Z,21.20
2022-08-16T21:16:18.402Z,21.10
2022-08-16T21:18:46.665Z,21.10
2022-08-16T21:21:14.668Z,21.10
2022-08-16T21:23:43.895Z,21.20
2022-08-16T21:26:12.291Z,21.10
2022-08-16T21:28:43.587Z,21.10
2022-08-16T21:31:15.174Z,21.00
2022-08-16T21:33:43.670Z,21.10
2022-08-16T21:36:13.006Z,21.00
2022-08-16T21:38:41.024Z,21.00
2022-08-16T21:41:12.686Z,21.10
2022-08-16T21:43:41.001Z,21.00
2022-08-16T21:46:09.941Z,20.80
2022-08-16T21:48:40.702Z,20.70
2022-08-16T21:51:11.039Z,20.70
2022-08-16T21:53:39.533Z,20.60
2022-08-16T21:56:12.547Z,20.70
2022-08-16T21:58:52.804Z,20.70
2022-08-16T22:01:22.935Z,20.70
2022-08-16T22:04:35.819Z,20.80
2022-08-16T22:06:40.227Z,20.80
2022-08-16T22:09:09.761Z,20.80
2022-08-16T22:11:37.710Z,20.70
2022-08-16T22:14:07.013Z,20.60
2022-08-16T22:16:39.307Z,20.60
2022-08-16T22:19:07.620Z,20.60
2022-08-16T22:21:36.945Z,20.60
2022-08-16T22:24:06.154Z,20.60
2022-08-16T22:26:42.264Z,20.50
2022-08-16T22:29:14.816Z,20.50
2022-08-16T22:31:43.429Z,20.40
2022-08-16T22:34:11.715Z,20.30
2022-08-16T22:36:40.074Z,20.20
2022-08-16T22:39:10.032Z,20.20
2022-08-16T22:41:39.601Z,20.10
2022-08-16T22:44:08.205Z,20.00
2022-08-16T22:46:38.100Z,20.00
2022-08-16T22:49:06.825Z,20.10
2022-08-16T22:51:36.234Z,20.10
2022-08-16T22:54:09.433Z,20.20
2022-08-16T22:56:52.844Z,20.20
2022-08-16T22:59:20.776Z,20.20
2022-08-16T23:01:50.070Z,20.20
2022-08-16T23:04:18.004Z,20.10
2022-08-16T23:06:45.867Z,20.10
2022-08-16T23:09:13.733Z,19.90
2022-08-16T23:11:41.608Z,19.70
2022-08-16T23:14:09.823Z,19.60
2022-08-16T23:16:38.688Z,19.50
2022-08-16T23:19:10.940Z,19.40
2022-08-16T23:21:41.691Z,19.30
2022-08-16T23:24:09.976Z,19.20
2022-08-16T23:26:48.125Z,19.10
2022-08-16T23:29:23.333Z,19.00
2022-08-16T23:31:55.897Z,18.90
2022-08-16T23:34:26.670Z,18.80
2022-08-16T23:36:54.756Z,18.70
2022-08-16T23:39:23.164Z,18.80
2022-08-16T23:41:51.882Z,18.70
2022-08-16T23:44:56.282Z,18.70
2022-08-16T23:47:07.967Z,18.60
2022-08-16T23:49:58.704Z,18.70
2022-08-16T23:52:53.271Z,18.70
2022-08-16T23:55:13.171Z,18.70
2022-08-16T23:57:41.094Z,18.80
